sensor_id;sensor_type;location;lat;lon;timestamp;temperature;humidity
18103;DHT22;9178;51.120;6.192;2023-06-22T00:02:22;20.20;99.90
18103;DHT22;9178;51.120;6.192;2023-06-22T00:04:49;20.10;99.90
18103;DHT22;9178;51.120;6.192;2023-06-22T00:07:16;20.10;99.90
18103;DHT22;9178;51.120;6.192;2023-06-22T00:09:43;20.10;99.90
18103;DHT22;9178;51.120;6.192;2023-06-22T00:12:10;20.10;99.90
18103;DHT22;9178;51.120;6.192;2023-06-22T00:14:41;20.00;99.90
18103;DHT22;9178;51.120;6.192;2023-06-22T00:17:08;20.00;99.90
18103;DHT22;9178;51.120;6.192;2023-06-22T00:19:41;20.00;99.90
18103;DHT22;9178;51.120;6.192;2023-06-22T00:22:08;19.90;99.90
18103;DHT22;9178;51.120;6.192;2023-06-22T00:24:36;19.90;99.90
18103;DHT22;9178;51.120;6.192;2023-06-22T00:27:03;19.90;99.90
18103;DHT22;9178;51.120;6.192;2023-06-22T00:29:31;19.90;99.90
18103;DHT22;9178;51.120;6.192;2023-06-22T00:32:00;19.80;99.90
18103;DHT22;9178;51.120;6.192;2023-06-22T00:34:26;19.80;99.90
18103;DHT22;9178;51.120;6.192;2023-06-22T00:36:53;19.80;99.90
18103;DHT22;9178;51.120;6.192;2023-06-22T00:39:20;19.80;99.90
18103;DHT22;9178;51.120;6.192;2023-06-22T00:41:48;19.70;99.90
18103;DHT22;9178;51.120;6.192;2023-06-22T00:44:15;19.70;99.90
18103;DHT22;9178;51.120;6.192;2023-06-22T00:46:42;19.70;99.90
18103;DHT22;9178;51.120;6.192;2023-06-22T00:49:10;19.70;99.90
18103;DHT22;9178;51.120;6.192;2023-06-22T00:51:40;19.70;99.90
18103;DHT22;9178;51.120;6.192;2023-06-22T00:54:13;19.60;99.90
18103;DHT22;9178;51.120;6.192;2023-06-22T00:56:41;19.60;99.90
18103;DHT22;9178;51.120;6.192;2023-06-22T00:59:09;19.60;99.90
18103;DHT22;9178;51.120;6.192;2023-06-22T01:01:37;19.60;99.90
18103;DHT22;9178;51.120;6.192;2023-06-22T01:04:11;19.60;99.90
18103;DHT22;9178;51.120;6.192;2023-06-22T01:06:44;19.60;99.90
18103;DHT22;9178;51.120;6.192;2023-06-22T01:09:15;19.60;99.90
18103;DHT22;9178;51.120;6.192;2023-06-22T01:11:47;19.60;99.90
18103;DHT22;9178;51.120;6.192;2023-06-22T01:14:22;19.60;99.90
18103;DHT22;9178;51.120;6.192;2023-06-22T01:16:52;19.50;99.90
18103;DHT22;9178;51.120;6.192;2023-06-22T01:19:39;19.50;99.90
18103;DHT22;9178;51.120;6.192;2023-06-22T01:22:10;19.50;99.90
18103;DHT22;9178;51.120;6.192;2023-06-22T01:24:48;19.50;99.90
18103;DHT22;9178;51.120;6.192;2023-06-22T01:27:28;19.40;99.90
18103;DHT22;9178;51.120;6.192;2023-06-22T01:30:02;19.40;99.90
18103;DHT22;9178;51.120;6.192;2023-06-22T01:32:32;19.40;99.90
18103;DHT22;9178;51.120;6.192;2023-06-22T01:35:05;19.40;99.90
18103;DHT22;9178;51.120;6.192;2023-06-22T01:37:34;19.40;99.90
18103;DHT22;9178;51.120;6.192;2023-06-22T01:40:02;19.40;99.90
18103;DHT22;9178;51.120;6.192;2023-06-22T01:42:31;19.40;99.90
18103;DHT22;9178;51.120;6.192;2023-06-22T01:45:00;19.40;99.90
18103;DHT22;9178;51.120;6.192;2023-06-22T01:47:28;19.40;99.90
18103;DHT22;9178;51.120;6.192;2023-06-22T01:49:55;19.40;99.90
18103;DHT22;9178;51.120;6.192;2023-06-22T01:52:21;19.40;99.90
18103;DHT22;9178;51.120;6.192;2023-06-22T01:54:49;19.40;99.90
18103;DHT22;9178;51.120;6.192;2023-06-22T01:57:17;19.40;99.90
18103;DHT22;9178;51.120;6.192;2023-06-22T01:59:49;19.40;99.90
18103;DHT22;9178;51.120;6.192;2023-06-22T02:02:20;19.40;99.90
18103;DHT22;9178;51.120;6.192;2023-06-22T02:04:56;19.40;99.90
18103;DHT22;9178;51.120;6.192;2023-06-22T02:07:29;19.40;99.90
18103;DHT22;9178;51.120;6.192;2023-06-22T02:09:59;19.40;99.90
18103;DHT22;9178;51.120;6.192;2023-06-22T02:12:29;19.40;99.90
18103;DHT22;9178;51.120;6.192;2023-06-22T02:14:57;19.40;99.90
18103;DHT22;9178;51.120;6.192;2023-06-22T02:17:30;19.40;99.90
18103;DHT22;9178;51.120;6.192;2023-06-22T02:19:58;19.40;99.90
18103;DHT22;9178;51.120;6.192;2023-06-22T02:22:25;19.30;99.90
18103;DHT22;9178;51.120;6.192;2023-06-22T02:24:53;19.30;99.90
18103;DHT22;9178;51.120;6.192;2023-06-22T02:27:20;19.30;99.90
18103;DHT22;9178;51.120;6.192;2023-06-22T02:29:47;19.30;99.90
18103;DHT22;9178;51.120;6.192;2023-06-22T02:32:14;19.30;99.90
18103;DHT22;9178;51.120;6.192;2023-06-22T02:34:44;19.30;99.90
18103;DHT22;9178;51.120;6.192;2023-06-22T02:37:13;19.30;99.90
18103;DHT22;9178;51.120;6.192;2023-06-22T02:39:41;19.30;99.90
18103;DHT22;9178;51.120;6.192;2023-06-22T02:42:08;19.30;99.90
18103;DHT22;9178;51.120;6.192;2023-06-22T02:44:36;19.30;99.90
18103;DHT22;9178;51.120;6.192;2023-06-22T02:47:04;19.30;99.90
18103;DHT22;9178;51.120;6.192;2023-06-22T02:49:31;19.30;99.90
18103;DHT22;9178;51.120;6.192;2023-06-22T02:52:03;19.30;99.90
18103;DHT22;9178;51.120;6.192;2023-06-22T02:54:30;19.30;99.90
18103;DHT22;9178;51.120;6.192;2023-06-22T02:56:57;19.30;99.90
18103;DHT22;9178;51.120;6.192;2023-06-22T02:59:28;19.30;99.90
18103;DHT22;9178;51.120;6.192;2023-06-22T03:01:55;19.30;99.90
18103;DHT22;9178;51.120;6.192;2023-06-22T03:04:22;19.30;99.90
18103;DHT22;9178;51.120;6.192;2023-06-22T03:06:49;19.20;99.90
18103;DHT22;9178;51.120;6.192;2023-06-22T03:09:18;19.30;99.90
18103;DHT22;9178;51.120;6.192;2023-06-22T03:11:45;19.30;99.90
18103;DHT22;9178;51.120;6.192;2023-06-22T03:14:12;19.30;99.90
18103;DHT22;9178;51.120;6.192;2023-06-22T03:16:39;19.30;99.90
18103;DHT22;9178;51.120;6.192;2023-06-22T03:19:07;19.30;99.90
18103;DHT22;9178;51.120;6.192;2023-06-22T03:21:34;19.30;99.90
18103;DHT22;9178;51.120;6.192;2023-06-22T03:24:03;19.20;99.90
18103;DHT22;9178;51.120;6.192;2023-06-22T03:26:34;19.20;99.90
18103;DHT22;9178;51.120;6.192;2023-06-22T03:29:01;19.20;99.90
18103;DHT22;9178;51.120;6.192;2023-06-22T03:31:28;19.20;99.90
18103;DHT22;9178;51.120;6.192;2023-06-22T03:33:55;19.20;99.90
18103;DHT22;9178;51.120;6.192;2023-06-22T03:36:24;19.20;99.90
18103;DHT22;9178;51.120;6.192;2023-06-22T03:38:51;19.20;99.90
18103;DHT22;9178;51.120;6.192;2023-06-22T03:41:18;19.20;99.90
18103;DHT22;9178;51.120;6.192;2023-06-22T03:43:47;19.20;99.90
18103;DHT22;9178;51.120;6.192;2023-06-22T03:46:14;19.20;99.90
18103;DHT22;9178;51.120;6.192;2023-06-22T03:48:41;19.20;99.90
18103;DHT22;9178;51.120;6.192;2023-06-22T03:51:08;19.20;99.90
18103;DHT22;9178;51.120;6.192;2023-06-22T03:53:35;19.20;99.90
18103;DHT22;9178;51.120;6.192;2023-06-22T03:56:03;19.20;99.90
18103;DHT22;9178;51.120;6.192;2023-06-22T03:58:30;19.20;99.90
18103;DHT22;9178;51.120;6.192;2023-06-22T04:00:59;19.20;99.90
18103;DHT22;9178;51.120;6.192;2023-06-22T04:03:27;19.20;99.90
18103;DHT22;9178;51.120;6.192;2023-06-22T04:05:53;19.30;99.90
18103;DHT22;9178;51.120;6.192;2023-06-22T04:08:20;19.30;99.90
18103;DHT22;9178;51.120;6.192;2023-06-22T04:10:47;19.30;99.90
18103;DHT22;9178;51.120;6.192;2023-06-22T04:13:15;19.30;99.90
18103;DHT22;9178;51.120;6.192;2023-06-22T04:15:42;19.30;99.90
18103;DHT22;9178;51.120;6.192;2023-06-22T04:18:11;19.30;99.90
18103;DHT22;9178;51.120;6.192;2023-06-22T04:20:39;19.30;99.90
18103;DHT22;9178;51.120;6.192;2023-06-22T04:23:06;19.30;99.90
18103;DHT22;9178;51.120;6.192;2023-06-22T04:25:34;19.20;99.90
18103;DHT22;9178;51.120;6.192;2023-06-22T04:28:01;19.20;99.90
18103;DHT22;9178;51.120;6.192;2023-06-22T04:30:32;19.20;99.90
18103;DHT22;9178;51.120;6.192;2023-06-22T04:32:59;19.20;99.90
18103;DHT22;9178;51.120;6.192;2023-06-22T04:35:27;19.20;99.90
18103;DHT22;9178;51.120;6.192;2023-06-22T04:37:57;19.20;99.90
18103;DHT22;9178;51.120;6.192;2023-06-22T04:40:24;19.20;99.90
18103;DHT22;9178;51.120;6.192;2023-06-22T04:42:51;19.20;99.90
18103;DHT22;9178;51.120;6.192;2023-06-22T04:45:19;19.20;99.90
18103;DHT22;9178;51.120;6.192;2023-06-22T04:47:46;19.20;99.90
18103;DHT22;9178;51.120;6.192;2023-06-22T04:50:19;19.20;99.90
18103;DHT22;9178;51.120;6.192;2023-06-22T04:52:48;19.20;99.90
18103;DHT22;9178;51.120;6.192;2023-06-22T04:55:16;19.20;99.90
18103;DHT22;9178;51.120;6.192;2023-06-22T04:57:44;19.20;99.90
18103;DHT22;9178;51.120;6.192;2023-06-22T05:00:15;19.20;99.90
18103;DHT22;9178;51.120;6.192;2023-06-22T05:02:44;19.10;99.90
18103;DHT22;9178;51.120;6.192;2023-06-22T05:05:12;19.10;99.90
18103;DHT22;9178;51.120;6.192;2023-06-22T05:07:52;19.20;99.90
18103;DHT22;9178;51.120;6.192;2023-06-22T05:10:20;19.20;99.90
18103;DHT22;9178;51.120;6.192;2023-06-22T05:12:47;19.20;99.90
18103;DHT22;9178;51.120;6.192;2023-06-22T05:15:14;19.20;99.90
18103;DHT22;9178;51.120;6.192;2023-06-22T05:17:42;19.20;99.90
18103;DHT22;9178;51.120;6.192;2023-06-22T05:20:10;19.20;99.90
18103;DHT22;9178;51.120;6.192;2023-06-22T05:22:37;19.20;99.90
18103;DHT22;9178;51.120;6.192;2023-06-22T05:25:09;19.20;99.90
18103;DHT22;9178;51.120;6.192;2023-06-22T05:27:36;19.20;99.90
18103;DHT22;9178;51.120;6.192;2023-06-22T05:30:07;19.20;99.90
18103;DHT22;9178;51.120;6.192;2023-06-22T05:32:35;19.20;99.90
18103;DHT22;9178;51.120;6.192;2023-06-22T05:35:02;19.20;99.90
18103;DHT22;9178;51.120;6.192;2023-06-22T05:37:31;19.20;99.90
18103;DHT22;9178;51.120;6.192;2023-06-22T05:39:58;19.20;99.90
18103;DHT22;9178;51.120;6.192;2023-06-22T05:42:26;19.20;99.90
18103;DHT22;9178;51.120;6.192;2023-06-22T05:44:53;19.20;99.90
18103;DHT22;9178;51.120;6.192;2023-06-22T05:47:20;19.20;99.90
18103;DHT22;9178;51.120;6.192;2023-06-22T05:49:50;19.20;99.90
18103;DHT22;9178;51.120;6.192;2023-06-22T05:52:17;19.20;99.90
18103;DHT22;9178;51.120;6.192;2023-06-22T05:54:44;19.30;99.90
18103;DHT22;9178;51.120;6.192;2023-06-22T05:57:11;19.30;99.90
18103;DHT22;9178;51.120;6.192;2023-06-22T05:59:39;19.30;99.90
18103;DHT22;9178;51.120;6.192;2023-06-22T06:02:06;19.30;99.90
18103;DHT22;9178;51.120;6.192;2023-06-22T06:04:33;19.30;99.90
18103;DHT22;9178;51.120;6.192;2023-06-22T06:07:02;19.40;99.90
18103;DHT22;9178;51.120;6.192;2023-06-22T06:09:29;19.40;99.90
18103;DHT22;9178;51.120;6.192;2023-06-22T06:11:56;19.40;99.90
18103;DHT22;9178;51.120;6.192;2023-06-22T06:14:23;19.40;99.90
18103;DHT22;9178;51.120;6.192;2023-06-22T06:16:51;19.40;99.90
18103;DHT22;9178;51.120;6.192;2023-06-22T06:19:18;19.50;99.90
18103;DHT22;9178;51.120;6.192;2023-06-22T06:21:45;19.50;99.90
18103;DHT22;9178;51.120;6.192;2023-06-22T06:24:12;19.50;99.90
18103;DHT22;9178;51.120;6.192;2023-06-22T06:26:39;19.60;99.90
18103;DHT22;9178;51.120;6.192;2023-06-22T06:29:06;19.60;99.90
18103;DHT22;9178;51.120;6.192;2023-06-22T06:31:33;19.70;99.90
18103;DHT22;9178;51.120;6.192;2023-06-22T06:34:03;19.70;99.90
18103;DHT22;9178;51.120;6.192;2023-06-22T06:36:30;19.80;99.90
18103;DHT22;9178;51.120;6.192;2023-06-22T06:38:57;19.80;99.90
18103;DHT22;9178;51.120;6.192;2023-06-22T06:41:24;19.90;99.90
18103;DHT22;9178;51.120;6.192;2023-06-22T06:43:51;20.00;99.90
18103;DHT22;9178;51.120;6.192;2023-06-22T06:46:18;20.10;99.90
18103;DHT22;9178;51.120;6.192;2023-06-22T06:48:45;20.10;99.90
18103;DHT22;9178;51.120;6.192;2023-06-22T06:51:13;20.10;99.90
18103;DHT22;9178;51.120;6.192;2023-06-22T06:53:41;20.20;99.90
18103;DHT22;9178;51.120;6.192;2023-06-22T06:56:08;20.20;99.90
18103;DHT22;9178;51.120;6.192;2023-06-22T06:58:36;20.20;99.90
18103;DHT22;9178;51.120;6.192;2023-06-22T07:01:03;20.30;99.90
18103;DHT22;9178;51.120;6.192;2023-06-22T07:03:30;20.30;99.90
18103;DHT22;9178;51.120;6.192;2023-06-22T07:05:58;20.40;99.90
18103;DHT22;9178;51.120;6.192;2023-06-22T07:08:27;20.50;99.90
18103;DHT22;9178;51.120;6.192;2023-06-22T07:10:54;20.60;99.90
18103;DHT22;9178;51.120;6.192;2023-06-22T07:13:22;20.70;99.90
18103;DHT22;9178;51.120;6.192;2023-06-22T07:15:50;20.80;99.90
18103;DHT22;9178;51.120;6.192;2023-06-22T07:18:18;20.90;99.90
18103;DHT22;9178;51.120;6.192;2023-06-22T07:20:45;21.00;99.90
18103;DHT22;9178;51.120;6.192;2023-06-22T07:23:13;21.10;99.90
18103;DHT22;9178;51.120;6.192;2023-06-22T07:25:41;21.10;99.90
18103;DHT22;9178;51.120;6.192;2023-06-22T07:28:11;21.20;99.90
18103;DHT22;9178;51.120;6.192;2023-06-22T07:30:38;21.20;99.90
18103;DHT22;9178;51.120;6.192;2023-06-22T07:33:05;21.30;99.90
18103;DHT22;9178;51.120;6.192;2023-06-22T07:35:34;21.40;99.90
18103;DHT22;9178;51.120;6.192;2023-06-22T07:38:01;21.50;99.90
18103;DHT22;9178;51.120;6.192;2023-06-22T07:40:29;21.60;99.90
18103;DHT22;9178;51.120;6.192;2023-06-22T07:42:57;21.80;99.90
18103;DHT22;9178;51.120;6.192;2023-06-22T07:45:24;21.90;99.90
18103;DHT22;9178;51.120;6.192;2023-06-22T07:47:51;22.10;99.90
18103;DHT22;9178;51.120;6.192;2023-06-22T07:50:19;22.20;99.90
18103;DHT22;9178;51.120;6.192;2023-06-22T07:52:46;22.40;99.90
18103;DHT22;9178;51.120;6.192;2023-06-22T07:55:14;22.50;99.90
18103;DHT22;9178;51.120;6.192;2023-06-22T07:57:41;22.60;99.90
18103;DHT22;9178;51.120;6.192;2023-06-22T08:00:12;22.60;99.90
18103;DHT22;9178;51.120;6.192;2023-06-22T08:02:41;22.80;99.90
18103;DHT22;9178;51.120;6.192;2023-06-22T08:05:09;22.90;99.90
18103;DHT22;9178;51.120;6.192;2023-06-22T08:07:37;23.00;99.90
18103;DHT22;9178;51.120;6.192;2023-06-22T08:10:05;23.10;99.90
18103;DHT22;9178;51.120;6.192;2023-06-22T08:12:32;23.20;99.90
18103;DHT22;9178;51.120;6.192;2023-06-22T08:14:59;23.20;99.90
18103;DHT22;9178;51.120;6.192;2023-06-22T08:17:29;23.30;99.90
18103;DHT22;9178;51.120;6.192;2023-06-22T08:19:56;23.50;99.90
18103;DHT22;9178;51.120;6.192;2023-06-22T08:22:23;23.60;99.90
18103;DHT22;9178;51.120;6.192;2023-06-22T08:24:50;23.80;99.90
18103;DHT22;9178;51.120;6.192;2023-06-22T08:27:18;24.00;99.90
18103;DHT22;9178;51.120;6.192;2023-06-22T08:29:47;24.20;99.90
18103;DHT22;9178;51.120;6.192;2023-06-22T08:32:15;24.80;99.90
18103;DHT22;9178;51.120;6.192;2023-06-22T08:34:44;25.30;99.90
18103;DHT22;9178;51.120;6.192;2023-06-22T08:37:11;25.80;99.90
18103;DHT22;9178;51.120;6.192;2023-06-22T08:39:38;26.10;99.90
18103;DHT22;9178;51.120;6.192;2023-06-22T08:42:06;26.50;99.90
18103;DHT22;9178;51.120;6.192;2023-06-22T08:44:33;26.80;99.90
18103;DHT22;9178;51.120;6.192;2023-06-22T08:47:00;27.00;99.90
18103;DHT22;9178;51.120;6.192;2023-06-22T08:49:29;27.00;99.90
18103;DHT22;9178;51.120;6.192;2023-06-22T08:51:58;26.90;99.90
18103;DHT22;9178;51.120;6.192;2023-06-22T08:54:25;26.90;99.90
18103;DHT22;9178;51.120;6.192;2023-06-22T08:56:52;26.90;99.90
18103;DHT22;9178;51.120;6.192;2023-06-22T08:59:19;26.90;99.90
18103;DHT22;9178;51.120;6.192;2023-06-22T09:01:46;26.90;99.90
18103;DHT22;9178;51.120;6.192;2023-06-22T09:04:14;26.70;99.90
18103;DHT22;9178;51.120;6.192;2023-06-22T09:06:43;26.40;99.90
18103;DHT22;9178;51.120;6.192;2023-06-22T09:09:15;26.30;99.90
18103;DHT22;9178;51.120;6.192;2023-06-22T09:11:42;26.40;99.90
18103;DHT22;9178;51.120;6.192;2023-06-22T09:14:09;26.40;99.90
18103;DHT22;9178;51.120;6.192;2023-06-22T09:16:37;26.50;99.90
18103;DHT22;9178;51.120;6.192;2023-06-22T09:19:04;26.40;99.90
18103;DHT22;9178;51.120;6.192;2023-06-22T09:21:34;26.60;99.90
18103;DHT22;9178;51.120;6.192;2023-06-22T09:24:01;27.10;99.90
18103;DHT22;9178;51.120;6.192;2023-06-22T09:26:30;27.70;99.90
18103;DHT22;9178;51.120;6.192;2023-06-22T09:28:57;28.30;99.90
18103;DHT22;9178;51.120;6.192;2023-06-22T09:31:24;28.40;99.90
18103;DHT22;9178;51.120;6.192;2023-06-22T09:33:52;28.50;99.90
18103;DHT22;9178;51.120;6.192;2023-06-22T09:36:20;28.40;99.90
18103;DHT22;9178;51.120;6.192;2023-06-22T09:38:48;28.50;99.90
18103;DHT22;9178;51.120;6.192;2023-06-22T09:41:21;28.40;99.90
18103;DHT22;9178;51.120;6.192;2023-06-22T09:43:50;28.50;99.90
18103;DHT22;9178;51.120;6.192;2023-06-22T09:46:17;28.60;99.90
18103;DHT22;9178;51.120;6.192;2023-06-22T09:48:47;28.70;99.90
18103;DHT22;9178;51.120;6.192;2023-06-22T09:51:14;28.70;99.90
18103;DHT22;9178;51.120;6.192;2023-06-22T09:53:41;28.70;99.90
18103;DHT22;9178;51.120;6.192;2023-06-22T09:56:09;28.70;99.90
18103;DHT22;9178;51.120;6.192;2023-06-22T09:58:40;28.60;99.90
18103;DHT22;9178;51.120;6.192;2023-06-22T10:01:09;28.60;99.90
18103;DHT22;9178;51.120;6.192;2023-06-22T10:03:37;28.50;99.90
18103;DHT22;9178;51.120;6.192;2023-06-22T10:06:04;28.40;99.90
18103;DHT22;9178;51.120;6.192;2023-06-22T10:08:31;28.30;99.90
18103;DHT22;9178;51.120;6.192;2023-06-22T10:10:58;28.20;99.90
18103;DHT22;9178;51.120;6.192;2023-06-22T10:13:25;28.10;99.90
18103;DHT22;9178;51.120;6.192;2023-06-22T10:15:52;28.00;99.90
18103;DHT22;9178;51.120;6.192;2023-06-22T10:18:20;27.80;99.90
18103;DHT22;9178;51.120;6.192;2023-06-22T10:20:49;27.50;99.90
18103;DHT22;9178;51.120;6.192;2023-06-22T10:23:17;27.40;99.90
18103;DHT22;9178;51.120;6.192;2023-06-22T10:25:43;27.30;99.90
18103;DHT22;9178;51.120;6.192;2023-06-22T10:28:11;27.20;99.90
18103;DHT22;9178;51.120;6.192;2023-06-22T10:30:38;27.00;99.90
18103;DHT22;9178;51.120;6.192;2023-06-22T10:33:06;26.90;99.90
18103;DHT22;9178;51.120;6.192;2023-06-22T10:35:39;26.70;99.90
18103;DHT22;9178;51.120;6.192;2023-06-22T10:38:07;26.50;99.90
18103;DHT22;9178;51.120;6.192;2023-06-22T10:40:34;26.20;99.90
18103;DHT22;9178;51.120;6.192;2023-06-22T10:43:01;26.00;99.90
18103;DHT22;9178;51.120;6.192;2023-06-22T10:45:28;25.80;99.90
18103;DHT22;9178;51.120;6.192;2023-06-22T10:47:55;25.60;99.90
18103;DHT22;9178;51.120;6.192;2023-06-22T10:50:23;25.50;99.90
18103;DHT22;9178;51.120;6.192;2023-06-22T10:52:53;25.40;99.90
18103;DHT22;9178;51.120;6.192;2023-06-22T10:55:20;25.40;99.90
18103;DHT22;9178;51.120;6.192;2023-06-22T10:57:47;25.30;99.90
18103;DHT22;9178;51.120;6.192;2023-06-22T11:00:16;25.20;99.90
18103;DHT22;9178;51.120;6.192;2023-06-22T11:02:43;25.00;99.90
18103;DHT22;9178;51.120;6.192;2023-06-22T11:05:11;25.00;99.90
18103;DHT22;9178;51.120;6.192;2023-06-22T11:07:41;24.90;99.90
18103;DHT22;9178;51.120;6.192;2023-06-22T11:10:10;24.80;99.90
18103;DHT22;9178;51.120;6.192;2023-06-22T11:12:37;24.80;99.90
18103;DHT22;9178;51.120;6.192;2023-06-22T11:15:05;24.70;99.90
18103;DHT22;9178;51.120;6.192;2023-06-22T11:17:32;24.70;99.90
18103;DHT22;9178;51.120;6.192;2023-06-22T11:19:59;24.60;99.90
18103;DHT22;9178;51.120;6.192;2023-06-22T11:22:26;24.40;99.90
18103;DHT22;9178;51.120;6.192;2023-06-22T11:24:53;24.30;99.90
18103;DHT22;9178;51.120;6.192;2023-06-22T11:27:22;24.30;99.90
18103;DHT22;9178;51.120;6.192;2023-06-22T11:29:51;24.20;99.90
18103;DHT22;9178;51.120;6.192;2023-06-22T11:32:18;24.10;99.90
18103;DHT22;9178;51.120;6.192;2023-06-22T11:34:45;24.10;99.90
18103;DHT22;9178;51.120;6.192;2023-06-22T11:37:12;24.10;99.90
18103;DHT22;9178;51.120;6.192;2023-06-22T11:39:40;24.00;99.90
18103;DHT22;9178;51.120;6.192;2023-06-22T11:42:08;24.10;99.90
18103;DHT22;9178;51.120;6.192;2023-06-22T11:44:41;24.30;99.90
18103;DHT22;9178;51.120;6.192;2023-06-22T11:47:11;24.70;99.90
18103;DHT22;9178;51.120;6.192;2023-06-22T11:49:38;25.20;99.90
18103;DHT22;9178;51.120;6.192;2023-06-22T11:52:06;25.60;99.90
18103;DHT22;9178;51.120;6.192;2023-06-22T11:54:33;25.60;99.90
18103;DHT22;9178;51.120;6.192;2023-06-22T11:57:00;25.50;99.90
18103;DHT22;9178;51.120;6.192;2023-06-22T11:59:27;25.50;99.90
18103;DHT22;9178;51.120;6.192;2023-06-22T12:01:57;25.40;99.90
18103;DHT22;9178;51.120;6.192;2023-06-22T12:04:24;25.30;99.90
18103;DHT22;9178;51.120;6.192;2023-06-22T12:06:51;25.10;99.90
18103;DHT22;9178;51.120;6.192;2023-06-22T12:09:18;25.10;99.90
18103;DHT22;9178;51.120;6.192;2023-06-22T12:11:45;25.20;99.90
18103;DHT22;9178;51.120;6.192;2023-06-22T12:14:12;25.40;99.90
18103;DHT22;9178;51.120;6.192;2023-06-22T12:16:39;25.60;99.90
18103;DHT22;9178;51.120;6.192;2023-06-22T12:19:07;25.60;99.90
18103;DHT22;9178;51.120;6.192;2023-06-22T12:21:34;25.50;99.90
18103;DHT22;9178;51.120;6.192;2023-06-22T12:24:01;25.50;99.90
18103;DHT22;9178;51.120;6.192;2023-06-22T12:26:28;25.40;99.90
18103;DHT22;9178;51.120;6.192;2023-06-22T12:28:55;25.40;99.90
18103;DHT22;9178;51.120;6.192;2023-06-22T12:31:22;25.40;99.90
18103;DHT22;9178;51.120;6.192;2023-06-22T12:33:48;25.50;99.90
18103;DHT22;9178;51.120;6.192;2023-06-22T12:36:17;25.70;99.90
18103;DHT22;9178;51.120;6.192;2023-06-22T12:38:44;25.60;99.90
18103;DHT22;9178;51.120;6.192;2023-06-22T12:41:11;25.60;99.90
18103;DHT22;9178;51.120;6.192;2023-06-22T12:43:37;25.40;99.90
18103;DHT22;9178;51.120;6.192;2023-06-22T12:46:04;25.30;99.90
18103;DHT22;9178;51.120;6.192;2023-06-22T12:48:31;25.20;99.90
18103;DHT22;9178;51.120;6.192;2023-06-22T12:50:58;25.00;99.90
18103;DHT22;9178;51.120;6.192;2023-06-22T12:53:26;24.80;99.90
18103;DHT22;9178;51.120;6.192;2023-06-22T12:55:53;24.80;99.90
18103;DHT22;9178;51.120;6.192;2023-06-22T12:58:20;24.70;99.90
18103;DHT22;9178;51.120;6.192;2023-06-22T13:00:48;24.70;99.90
18103;DHT22;9178;51.120;6.192;2023-06-22T13:03:14;24.50;99.90
18103;DHT22;9178;51.120;6.192;2023-06-22T13:05:41;24.40;99.90
18103;DHT22;9178;51.120;6.192;2023-06-22T13:08:08;24.40;99.90
18103;DHT22;9178;51.120;6.192;2023-06-22T13:10:37;24.30;99.90
18103;DHT22;9178;51.120;6.192;2023-06-22T13:13:04;24.30;99.90
18103;DHT22;9178;51.120;6.192;2023-06-22T13:15:31;24.20;99.90
18103;DHT22;9178;51.120;6.192;2023-06-22T13:17:59;24.10;99.90
18103;DHT22;9178;51.120;6.192;2023-06-22T13:20:25;24.00;99.90
18103;DHT22;9178;51.120;6.192;2023-06-22T13:22:53;23.90;99.90
18103;DHT22;9178;51.120;6.192;2023-06-22T13:25:21;23.90;99.90
18103;DHT22;9178;51.120;6.192;2023-06-22T13:27:53;23.80;99.90
18103;DHT22;9178;51.120;6.192;2023-06-22T13:30:21;23.80;99.90
18103;DHT22;9178;51.120;6.192;2023-06-22T13:32:48;23.80;99.90
18103;DHT22;9178;51.120;6.192;2023-06-22T13:35:14;23.70;99.90
18103;DHT22;9178;51.120;6.192;2023-06-22T13:37:41;23.70;99.90
18103;DHT22;9178;51.120;6.192;2023-06-22T13:40:09;23.70;99.90
18103;DHT22;9178;51.120;6.192;2023-06-22T13:42:36;23.80;99.90
18103;DHT22;9178;51.120;6.192;2023-06-22T13:45:05;23.80;99.90
18103;DHT22;9178;51.120;6.192;2023-06-22T13:47:33;23.90;99.90
18103;DHT22;9178;51.120;6.192;2023-06-22T13:50:00;23.90;99.90
18103;DHT22;9178;51.120;6.192;2023-06-22T13:52:27;23.90;99.90
18103;DHT22;9178;51.120;6.192;2023-06-22T13:54:53;23.80;99.90
18103;DHT22;9178;51.120;6.192;2023-06-22T13:57:20;23.70;99.90
18103;DHT22;9178;51.120;6.192;2023-06-22T13:59:47;23.70;99.90
18103;DHT22;9178;51.120;6.192;2023-06-22T14:02:16;23.60;99.90
18103;DHT22;9178;51.120;6.192;2023-06-22T14:04:43;23.50;99.90
18103;DHT22;9178;51.120;6.192;2023-06-22T14:07:10;23.40;99.90
18103;DHT22;9178;51.120;6.192;2023-06-22T14:09:37;23.20;99.90
18103;DHT22;9178;51.120;6.192;2023-06-22T14:12:04;23.20;99.90
18103;DHT22;9178;51.120;6.192;2023-06-22T14:14:31;23.20;99.90
18103;DHT22;9178;51.120;6.192;2023-06-22T14:16:58;23.10;99.90
18103;DHT22;9178;51.120;6.192;2023-06-22T14:19:27;23.10;99.90
18103;DHT22;9178;51.120;6.192;2023-06-22T14:21:54;23.10;99.90
18103;DHT22;9178;51.120;6.192;2023-06-22T14:24:22;22.90;99.90
18103;DHT22;9178;51.120;6.192;2023-06-22T14:26:49;22.90;99.90
18103;DHT22;9178;51.120;6.192;2023-06-22T14:29:16;22.80;99.90
18103;DHT22;9178;51.120;6.192;2023-06-22T14:31:45;22.70;99.90
18103;DHT22;9178;51.120;6.192;2023-06-22T14:34:12;22.60;99.90
18103;DHT22;9178;51.120;6.192;2023-06-22T14:36:41;22.50;99.90
18103;DHT22;9178;51.120;6.192;2023-06-22T14:39:08;22.40;99.90
18103;DHT22;9178;51.120;6.192;2023-06-22T14:41:35;22.20;99.90
18103;DHT22;9178;51.120;6.192;2023-06-22T14:44:02;22.20;99.90
18103;DHT22;9178;51.120;6.192;2023-06-22T14:46:29;22.10;99.90
18103;DHT22;9178;51.120;6.192;2023-06-22T14:48:56;22.10;99.90
18103;DHT22;9178;51.120;6.192;2023-06-22T14:51:23;22.00;99.90
18103;DHT22;9178;51.120;6.192;2023-06-22T14:53:51;22.00;99.90
18103;DHT22;9178;51.120;6.192;2023-06-22T14:56:18;21.80;99.90
18103;DHT22;9178;51.120;6.192;2023-06-22T14:58:45;21.80;99.90
18103;DHT22;9178;51.120;6.192;2023-06-22T15:01:12;21.80;99.90
18103;DHT22;9178;51.120;6.192;2023-06-22T15:03:40;21.70;99.90
18103;DHT22;9178;51.120;6.192;2023-06-22T15:06:07;21.60;99.90
18103;DHT22;9178;51.120;6.192;2023-06-22T15:08:34;21.60;99.90
18103;DHT22;9178;51.120;6.192;2023-06-22T15:11:05;21.50;99.90
18103;DHT22;9178;51.120;6.192;2023-06-22T15:13:32;21.50;99.90
18103;DHT22;9178;51.120;6.192;2023-06-22T15:15:59;21.40;99.90
18103;DHT22;9178;51.120;6.192;2023-06-22T15:18:26;21.30;99.90
18103;DHT22;9178;51.120;6.192;2023-06-22T15:20:57;21.30;99.90
18103;DHT22;9178;51.120;6.192;2023-06-22T15:23:24;21.30;99.90
18103;DHT22;9178;51.120;6.192;2023-06-22T15:25:51;21.20;99.90
18103;DHT22;9178;51.120;6.192;2023-06-22T15:28:20;21.10;99.90
18103;DHT22;9178;51.120;6.192;2023-06-22T15:30:47;21.10;99.90
18103;DHT22;9178;51.120;6.192;2023-06-22T15:33:15;21.00;99.90
18103;DHT22;9178;51.120;6.192;2023-06-22T15:35:42;20.90;99.90
18103;DHT22;9178;51.120;6.192;2023-06-22T15:38:09;20.80;99.90
18103;DHT22;9178;51.120;6.192;2023-06-22T15:40:36;20.80;99.90
18103;DHT22;9178;51.120;6.192;2023-06-22T15:43:05;20.70;99.90
18103;DHT22;9178;51.120;6.192;2023-06-22T15:45:33;20.60;99.90
18103;DHT22;9178;51.120;6.192;2023-06-22T15:48:00;20.60;99.90
18103;DHT22;9178;51.120;6.192;2023-06-22T15:50:29;20.50;99.90